Time;durP1;ratioP1;P1;durP2;ratioP2;P2;SDS_P1;SDS_P2;PMS_P1;PMS_P2;Temp;Humidity;BMP_temperature;BMP_pressure;BME280_temperature;BME280_humidity;BME280_pressure;Samples;Min_cycle;Max_cycle;Signal;HPM_P1;HPM_P2
2023/07/22 00:00:24;;;;;;;11.75;6.60;;;;;;;16.23;93.69;101217.56;4998286;28;20486;-80
2023/07/22 00:02:50;;;;;;;13.73;6.00;;;;;;;16.20;94.29;101212.72;5002076;28;21260;-80
2023/07/22 00:05:15;;;;;;;11.82;5.78;;;;;;;16.21;94.07;101216.31;4999749;28;20049;-81
2023/07/22 00:07:40;;;;;;;13.45;6.38;;;;;;;16.11;95.89;101220.03;4995706;28;20032;-80
2023/07/22 00:10:07;;;;;;;14.90;7.05;;;;;;;16.16;94.30;101214.75;5005608;28;20105;-80
2023/07/22 00:12:34;;;;;;;15.18;6.93;;;;;;;15.99;94.09;101212.78;5003541;28;20030;-80
2023/07/22 00:15:00;;;;;;;15.23;6.15;;;;;;;16.16;93.23;101211.13;4989470;28;20030;-81
2023/07/22 00:17:25;;;;;;;12.48;5.25;;;;;;;16.16;94.51;101216.75;4997142;28;20045;-80
2023/07/22 00:19:51;;;;;;;16.20;6.90;;;;;;;16.19;94.60;101210.28;4998797;28;20525;-81
2023/07/22 00:22:16;;;;;;;16.95;6.03;;;;;;;16.15;94.67;101213.13;5004825;28;20438;-80
2023/07/22 00:24:42;;;;;;;17.83;6.68;;;;;;;16.11;93.64;101203.06;5001238;28;20023;-80
2023/07/22 00:27:08;;;;;;;14.15;6.20;;;;;;;15.93;94.15;101209.56;4994854;28;20026;-81
2023/07/22 00:29:37;;;;;;;13.10;5.53;;;;;;;16.00;94.83;101194.63;4997813;28;20120;-80
2023/07/22 00:32:05;;;;;;;13.15;5.95;;;;;;;16.13;92.74;101198.63;4996474;28;21089;-80
2023/07/22 00:34:31;;;;;;;14.63;6.78;;;;;;;16.14;92.84;101193.78;4998957;28;20455;-80
2023/07/22 00:36:56;;;;;;;12.88;5.95;;;;;;;16.14;92.30;101196.59;5006774;28;20026;-80
2023/07/22 00:39:21;;;;;;;11.48;5.28;;;;;;;16.12;93.29;101194.19;5011365;28;20038;-80
2023/07/22 00:41:47;;;;;;;10.48;5.57;;;;;;;16.08;93.58;101195.41;5003718;28;20173;-80
2023/07/22 00:44:13;;;;;;;12.68;5.30;;;;;;;16.10;93.69;101193.78;5004697;28;20036;-80
2023/07/22 00:46:38;;;;;;;13.02;6.10;;;;;;;16.01;94.92;101190.59;5005214;28;20057;-81
2023/07/22 00:49:08;;;;;;;10.73;5.10;;;;;;;16.13;93.30;101189.31;5018745;28;20429;-80
2023/07/22 00:51:33;;;;;;;10.55;5.72;;;;;;;16.03;95.50;101186.13;4999691;28;20030;-80
2023/07/22 00:53:59;;;;;;;14.18;6.65;;;;;;;16.07;94.11;101185.34;5012196;28;20327;-80
2023/07/22 00:56:25;;;;;;;10.95;5.82;;;;;;;16.04;94.14;101187.75;4993514;28;20160;-80
2023/07/22 00:58:51;;;;;;;16.65;6.70;;;;;;;16.00;95.46;101181.31;5002145;28;20120;-80
2023/07/22 01:01:17;;;;;;;9.90;5.40;;;;;;;15.96;94.98;101183.34;5016132;28;20108;-80
2023/07/22 01:03:43;;;;;;;14.95;5.72;;;;;;;15.88;96.32;101187.41;5007080;28;20546;-80
2023/07/22 01:06:09;;;;;;;12.75;5.95;;;;;;;15.95;94.81;101184.56;5002228;28;20104;-80
2023/07/22 01:08:35;;;;;;;10.20;5.70;;;;;;;15.68;97.76;101181.34;5001930;28;20474;-80
2023/07/22 01:11:00;;;;;;;13.80;6.80;;;;;;;15.83;96.61;101188.63;5000410;28;20026;-80
2023/07/22 01:13:26;;;;;;;11.48;5.28;;;;;;;15.97;94.77;101172.84;5003675;28;20030;-80
2023/07/22 01:15:52;;;;;;;12.02;6.38;;;;;;;15.95;95.35;101156.31;4996445;28;20022;-81
2023/07/22 01:18:18;;;;;;;8.43;5.55;;;;;;;16.01;94.88;101171.63;5000717;28;20037;-80
2023/07/22 01:20:44;;;;;;;10.40;5.30;;;;;;;16.09;94.17;101174.44;5000739;28;20092;-80
2023/07/22 01:23:10;;;;;;;16.27;6.32;;;;;;;16.01;94.38;101162.34;5004011;28;20057;-81
2023/07/22 01:25:36;;;;;;;8.43;4.25;;;;;;;15.90;95.67;101176.50;5004327;28;20030;-80
2023/07/22 01:28:02;;;;;;;14.43;7.85;;;;;;;15.93;96.32;101180.53;5000017;28;20506;-80
2023/07/22 01:30:27;;;;;;;9.95;5.68;;;;;;;15.98;95.20;101171.63;4998004;28;20470;-80
2023/07/22 01:32:53;;;;;;;12.35;6.68;;;;;;;16.04;94.81;101173.66;5001194;28;20115;-80
2023/07/22 01:35:19;;;;;;;9.98;5.38;;;;;;;15.98;94.54;101163.97;5011036;28;20382;-80
2023/07/22 01:37:45;;;;;;;11.23;5.30;;;;;;;15.87;96.61;101163.19;5000306;28;20026;-80
2023/07/22 01:40:11;;;;;;;12.63;6.07;;;;;;;15.87;96.54;101163.19;5004700;28;20037;-80
2023/07/22 01:42:43;;;;;;;11.15;6.00;;;;;;;15.74;97.95;101168.47;5006196;28;20500;-80
2023/07/22 01:45:10;;;;;;;10.53;5.00;;;;;;;15.82;96.47;101166.44;5000033;28;20026;-80
2023/07/22 01:47:36;;;;;;;13.73;5.55;;;;;;;15.83;96.96;101168.03;4997452;28;20028;-80
2023/07/22 01:50:03;;;;;;;11.02;5.47;;;;;;;15.80;96.82;101164.03;5003038;28;20490;-81
2023/07/22 01:52:29;;;;;;;14.60;6.45;;;;;;;15.80;96.38;101171.69;5006979;28;20106;-81
2023/07/22 01:54:54;;;;;;;10.85;5.40;;;;;;;15.89;95.48;101160.78;5010521;28;20022;-80
2023/07/22 01:57:20;;;;;;;10.25;5.30;;;;;;;15.75;97.28;101166.47;4998420;28;20025;-80
2023/07/22 01:59:45;;;;;;;8.35;4.78;;;;;;;15.83;96.39;101163.22;5005797;28;20112;-81
2023/07/22 02:02:10;;;;;;;8.90;4.95;;;;;;;15.80;96.07;101166.03;4997738;28;20164;-80
2023/07/22 02:04:36;;;;;;;8.55;4.45;;;;;;;15.81;95.90;101164.81;4996374;28;20486;-80
2023/07/22 02:07:01;;;;;;;8.20;5.45;;;;;;;15.82;95.64;101157.97;5000976;28;20053;-80
2023/07/22 02:09:27;;;;;;;10.07;5.28;;;;;;;15.84;95.83;101164.81;5000392;28;20547;-80
2023/07/22 02:11:53;;;;;;;10.90;5.43;;;;;;;15.81;96.49;101159.19;4998748;28;20085;-80
2023/07/22 02:14:18;;;;;;;11.23;5.78;;;;;;;15.82;95.87;101163.63;5002776;28;20104;-80
2023/07/22 02:16:44;;;;;;;13.27;5.20;;;;;;;15.85;96.07;101160.81;5007208;28;20033;-80
2023/07/22 02:19:09;;;;;;;11.10;5.63;;;;;;;15.81;96.89;101164.81;4998165;28;20030;-80
2023/07/22 02:21:35;;;;;;;10.43;5.90;;;;;;;15.66;97.83;101158.38;4997448;28;20080;-80
2023/07/22 02:24:00;;;;;;;14.25;6.18;;;;;;;15.68;97.71;101163.63;4996110;28;20061;-80
2023/07/22 02:26:25;;;;;;;11.68;6.63;;;;;;;15.57;98.67;101155.97;4995804;28;20434;-80
2023/07/22 02:28:51;;;;;;;9.63;5.63;;;;;;;15.70;97.36;101164.03;4993224;28;20029;-80
2023/07/22 02:31:16;;;;;;;10.85;5.30;;;;;;;15.78;96.50;101152.34;5001032;28;20092;-80
2023/07/22 02:33:41;;;;;;;13.68;5.55;;;;;;;15.76;96.83;101153.97;5002146;28;20478;-80
2023/07/22 02:36:07;;;;;;;10.13;5.47;;;;;;;15.81;95.54;101151.53;4999421;28;20026;-80
2023/07/22 02:38:32;;;;;;;13.75;5.75;;;;;;;15.80;96.13;101151.94;4996498;28;20038;-80
2023/07/22 02:41:03;;;;;;;10.43;5.68;;;;;;;15.78;95.08;101151.53;5019706;28;20061;-80
2023/07/22 02:43:28;;;;;;;13.45;6.10;;;;;;;15.68;96.89;101152.34;4998830;28;20483;-80
2023/07/22 02:45:54;;;;;;;10.95;6.22;;;;;;;15.62;97.05;101149.13;4998179;28;20101;-80
2023/07/22 02:48:20;;;;;;;11.75;5.38;;;;;;;15.65;97.02;101149.13;5000176;28;20037;-80
2023/07/22 02:50:45;;;;;;;10.18;5.00;;;;;;;15.59;97.08;101144.28;5008154;28;20037;-80
2023/07/22 02:53:11;;;;;;;11.40;5.80;;;;;;;15.63;96.89;101151.53;5002004;28;20120;-79
2023/07/22 02:55:36;;;;;;;14.05;5.78;;;;;;;15.58;97.04;101140.69;5002927;28;20030;-80
2023/07/22 02:58:01;;;;;;;12.35;4.78;;;;;;;15.61;96.76;101145.50;5002045;28;20057;-81
2023/07/22 03:00:27;;;;;;;9.57;4.63;;;;;;;15.53;97.92;101154.38;5000113;28;20030;-80
2023/07/22 03:03:00;;;;;;;7.93;5.20;;;;;;;15.55;97.26;101154.78;5000393;28;20774;-80
2023/07/22 03:05:29;;;;;;;12.02;6.28;;;;;;;15.54;96.95;101153.97;5001305;28;20057;-80
2023/07/22 03:07:56;;;;;;;12.43;5.93;;;;;;;15.53;96.94;101163.63;5001312;28;20026;-80
2023/07/22 03:10:21;;;;;;;9.02;5.45;;;;;;;15.49;97.23;101157.19;4998993;28;20091;-80
2023/07/22 03:12:47;;;;;;;10.18;5.20;;;;;;;15.48;97.12;101149.16;5000538;28;20501;-80
2023/07/22 03:15:12;;;;;;;14.02;5.50;;;;;;;15.51;96.38;101159.63;5000349;28;20029;-80
2023/07/22 03:17:41;;;;;;;15.68;6.80;;;;;;;15.49;97.94;101162.03;5001122;28;20060;-80
2023/07/22 03:20:14;;;;;;;13.18;7.72;;;;;;;15.44;97.67;101161.25;4994351;28;20072;-80
2023/07/22 03:22:43;;;;;;;;;;;;;;;15.44;97.56;101160.44;5003524;28;20120;-80
2023/07/22 03:25:12;;;;;;;14.38;5.70;;;;;;;15.38;99.03;101164.88;5004296;28;19922;-80
2023/07/22 03:27:38;;;;;;;13.65;6.43;;;;;;;15.42;97.83;101157.22;5004155;28;20022;-80
2023/07/22 03:30:10;;;;;;;13.38;6.32;;;;;;;15.48;97.97;101155.59;5005907;28;20520;-80
2023/07/22 03:32:35;;;;;;;11.80;6.03;;;;;;;15.44;98.08;101149.16;5007374;28;20030;-80
2023/07/22 03:35:01;;;;;;;12.38;5.70;;;;;;;15.43;98.94;101164.47;5006489;28;20038;-80
2023/07/22 03:37:27;;;;;;;10.88;5.63;;;;;;;15.51;97.41;101148.34;5003200;28;20148;-80
2023/07/22 03:39:53;;;;;;;12.30;6.00;;;;;;;15.49;98.13;101153.56;5004695;28;20037;-80
2023/07/22 03:42:18;;;;;;;12.02;6.13;;;;;;;15.38;99.00;101148.75;5001844;28;20026;-80
2023/07/22 03:44:44;;;;;;;12.38;6.28;;;;;;;15.44;98.92;101149.16;4999619;28;20060;-80
2023/07/22 03:47:09;;;;;;;13.57;7.20;;;;;;;15.44;98.67;101144.31;5001107;28;20057;-80
2023/07/22 03:49:34;;;;;;;14.95;7.18;;;;;;;15.42;98.33;101145.94;4996245;28;20505;-80
2023/07/22 03:52:00;;;;;;;13.77;7.18;;;;;;;15.47;97.62;101156.78;5003729;28;20042;-80
2023/07/22 03:54:25;;;;;;;13.43;6.70;;;;;;;15.40;98.81;101148.34;4997865;28;20040;-80
2023/07/22 03:56:51;;;;;;;11.95;6.40;;;;;;;15.44;98.41;101149.94;5002211;28;20108;-80
2023/07/22 03:59:16;;;;;;;13.30;5.82;;;;;;;15.44;98.57;101157.63;4999761;28;20550;-80
2023/07/22 04:01:41;;;;;;;15.95;6.68;;;;;;;15.42;99.44;101160.84;5000994;28;20056;-80
2023/07/22 04:04:07;;;;;;;12.77;7.45;;;;;;;15.36;99.86;101164.47;5000175;28;20030;-80
2023/07/22 04:06:32;;;;;;;14.40;5.78;;;;;;;15.52;99.19;101162.03;4998774;28;20073;-80
2023/07/22 04:09:00;;;;;;;11.63;6.28;;;;;;;15.57;97.92;101158.00;5002994;28;20061;-80
2023/07/22 04:11:25;;;;;;;13.48;5.82;;;;;;;15.48;99.19;101166.88;5000056;28;20021;-80
2023/07/22 04:13:50;;;;;;;12.70;7.35;;;;;;;15.53;99.39;101166.47;4994194;28;20396;-80
2023/07/22 04:16:16;;;;;;;13.30;6.53;;;;;;;15.59;99.91;101164.84;4983802;28;20076;-80
2023/07/22 04:18:41;;;;;;;12.85;6.30;;;;;;;15.52;100.00;101167.69;5003033;28;20037;-80
2023/07/22 04:21:06;;;;;;;11.82;5.90;;;;;;;15.43;100.00;101170.09;5001801;28;20026;-80
2023/07/22 04:23:33;;;;;;;13.20;6.55;;;;;;;15.42;100.00;101162.84;5001929;28;20034;-80
2023/07/22 04:25:58;;;;;;;11.60;5.60;;;;;;;15.36;100.00;101164.47;5004627;28;20026;-80
2023/07/22 04:28:24;;;;;;;10.77;5.65;;;;;;;15.31;100.00;101162.88;4999635;28;20064;-80
2023/07/22 04:30:58;;;;;;;11.80;5.95;;;;;;;15.35;100.00;101163.69;5000858;28;20041;-81
2023/07/22 04:33:24;;;;;;;12.38;6.40;;;;;;;15.38;100.00;101162.06;5013968;28;20052;-80
2023/07/22 04:35:50;;;;;;;12.50;6.50;;;;;;;15.43;100.00;101168.09;5009945;28;20049;-80
2023/07/22 04:38:16;;;;;;;11.20;5.43;;;;;;;15.48;100.00;101164.06;5001325;28;20021;-80
2023/07/22 04:40:45;;;;;;;15.80;6.53;;;;;;;15.36;100.00;101167.28;5003199;28;20359;-80
2023/07/22 04:43:10;;;;;;;12.50;7.22;;;;;;;15.38;100.00;101159.22;5007000;28;20037;-81
2023/07/22 04:45:35;;;;;;;14.77;6.90;;;;;;;15.33;100.00;101148.38;5002460;28;20681;-81
2023/07/22 04:48:02;;;;;;;11.82;6.55;;;;;;;15.32;100.00;101147.53;4997992;28;20527;-82
2023/07/22 04:50:27;;;;;;;13.50;7.10;;;;;;;15.29;100.00;101147.56;5001481;28;20045;-80
2023/07/22 04:52:54;;;;;;;15.15;7.53;;;;;;;15.40;100.00;101148.34;5003144;28;20564;-81
2023/07/22 04:55:20;;;;;;;18.73;7.68;;;;;;;15.12;100.00;101149.19;5002293;28;20538;-82
2023/07/22 04:57:45;;;;;;;16.67;7.85;;;;;;;15.20;100.00;101157.25;5003707;28;20104;-82
2023/07/22 05:00:14;;;;;;;18.45;8.35;;;;;;;15.10;100.00;101143.16;5001727;28;20038;-84
2023/07/22 05:02:40;;;;;;;17.30;8.73;;;;;;;15.20;100.00;101140.31;4999516;28;20029;-85
2023/07/22 05:05:06;;;;;;;15.27;7.63;;;;;;;15.22;100.00;101154.00;5002122;28;20038;-84
2023/07/22 05:07:32;;;;;;;21.20;8.77;;;;;;;15.22;100.00;101159.63;4996992;28;20113;-84
2023/07/22 05:09:57;;;;;;;21.48;8.70;;;;;;;15.27;100.00;101166.91;4996861;28;20141;-84
2023/07/22 05:12:23;;;;;;;19.92;8.55;;;;;;;15.30;100.00;101166.09;4995823;28;20048;-83
2023/07/22 05:14:48;;;;;;;19.42;9.00;;;;;;;15.40;100.00;101154.00;4997031;28;20036;-82
2023/07/22 05:17:14;;;;;;;15.25;8.65;;;;;;;15.40;100.00;101154.00;4999011;28;20079;-83
2023/07/22 05:19:40;;;;;;;18.75;8.15;;;;;;;15.31;100.00;101168.50;5014667;28;20034;-82
2023/07/22 05:22:05;;;;;;;19.15;9.15;;;;;;;15.32;100.00;101158.81;5000807;28;20121;-82
2023/07/22 05:24:30;;;;;;;24.85;11.85;;;;;;;15.29;100.00;101156.03;4999125;28;20100;-82
2023/07/22 05:26:56;;;;;;;23.08;11.45;;;;;;;15.24;100.00;101160.03;4994966;28;20115;-82
2023/07/22 05:29:21;;;;;;;21.48;9.70;;;;;;;15.38;100.00;101150.78;4995550;28;20510;-82
2023/07/22 05:31:46;;;;;;;20.00;10.43;;;;;;;15.34;100.00;101155.59;4993473;28;20280;-82
2023/07/22 05:34:12;;;;;;;25.50;10.85;;;;;;;15.25;100.00;101154.00;4994262;28;20401;-82
2023/07/22 05:36:37;;;;;;;22.42;10.18;;;;;;;15.25;100.00;101165.28;5010880;28;20374;-81
2023/07/22 05:39:03;;;;;;;20.02;10.10;;;;;;;15.35;100.00;101160.84;4996788;28;20026;-81
2023/07/22 05:41:35;;;;;;;20.55;10.63;;;;;;;15.27;100.00;101161.25;4999798;28;20167;-81
2023/07/22 05:44:00;;;;;;;21.37;8.73;;;;;;;15.37;100.00;101158.44;5000554;28;20030;-81
2023/07/22 05:46:25;;;;;;;21.70;11.70;;;;;;;15.14;100.00;101153.22;4999055;28;20030;-81
2023/07/22 05:48:51;;;;;;;20.80;9.48;;;;;;;15.21;100.00;101153.19;5000899;28;22565;-81
2023/07/22 05:51:17;;;;;;;21.90;10.90;;;;;;;15.30;100.00;101154.81;5000120;28;20021;-81
2023/07/22 05:53:42;;;;;;;20.38;9.25;;;;;;;15.25;100.00;101141.91;4999581;28;20390;-81
2023/07/22 05:56:08;;;;;;;23.58;10.27;;;;;;;15.35;100.00;101143.13;5000106;28;20030;-81
2023/07/22 05:58:34;;;;;;;23.85;10.50;;;;;;;15.31;100.00;101145.94;4996898;28;20034;-81
2023/07/22 06:00:59;;;;;;;20.42;9.20;;;;;;;15.34;100.00;101144.34;4990432;28;20533;-81
2023/07/22 06:03:25;;;;;;;24.65;12.60;;;;;;;15.22;100.00;101137.06;5001941;28;20025;-81
2023/07/22 06:05:50;;;;;;;19.38;9.98;;;;;;;15.32;100.00;101141.09;5002012;28;20034;-81
2023/07/22 06:08:16;;;;;;;21.65;9.77;;;;;;;15.35;100.00;101146.75;4999430;28;20034;-81
2023/07/22 06:10:41;;;;;;;21.67;10.80;;;;;;;15.41;100.00;101147.97;4995497;28;20518;-81
2023/07/22 06:13:07;;;;;;;17.83;8.88;;;;;;;15.46;100.00;101158.03;5003104;28;20510;-81
2023/07/22 06:15:32;;;;;;;23.17;11.65;;;;;;;15.55;100.00;101149.94;4989838;28;20038;-81
2023/07/22 06:17:59;;;;;;;20.52;10.43;;;;;;;15.46;100.00;101146.75;4993800;28;20169;-81
2023/07/22 06:20:25;;;;;;;22.88;11.90;;;;;;;15.60;100.00;101154.34;4997146;28;20460;-81
2023/07/22 06:22:50;;;;;;;21.13;9.27;;;;;;;15.60;100.00;101151.53;4997478;28;20084;-81
2023/07/22 06:25:16;;;;;;;17.70;8.25;;;;;;;15.57;100.00;101149.53;4998899;28;20032;-81
2023/07/22 06:27:41;;;;;;;16.77;9.10;;;;;;;15.54;100.00;101148.34;5006172;28;20079;-81
2023/07/22 06:30:07;;;;;;;18.10;8.82;;;;;;;15.51;100.00;101151.94;5007375;28;20048;-81
2023/07/22 06:32:34;;;;;;;18.40;10.27;;;;;;;15.61;100.00;101148.31;5005344;28;20021;-80
2023/07/22 06:34:59;;;;;;;21.80;9.63;;;;;;;15.54;100.00;101145.53;5006791;28;20034;-81
2023/07/22 06:37:25;;;;;;;17.27;9.52;;;;;;;15.51;100.00;101140.66;5005175;28;20077;-81
2023/07/22 06:39:51;;;;;;;20.23;9.77;;;;;;;15.55;100.00;101141.47;4998299;28;21028;-81
2023/07/22 06:42:16;;;;;;;20.10;9.80;;;;;;;15.59;100.00;101133.00;5006448;28;20053;-80
2023/07/22 06:44:44;;;;;;;18.52;9.75;;;;;;;15.74;100.00;101145.09;5003864;28;20030;-81
2023/07/22 06:47:10;;;;;;;19.52;10.23;;;;;;;15.78;100.00;101137.44;5019501;28;20030;-81
2023/07/22 06:49:35;;;;;;;16.25;7.60;;;;;;;15.87;100.00;101146.25;5013484;28;20117;-81
2023/07/22 06:52:01;;;;;;;18.15;7.90;;;;;;;15.92;100.00;101145.84;5004702;28;20030;-81
2023/07/22 06:54:27;;;;;;;18.08;8.00;;;;;;;15.90;100.00;101148.28;5002719;28;20021;-81
2023/07/22 06:56:53;;;;;;;19.20;9.15;;;;;;;15.75;100.00;101147.53;5007475;28;20061;-81
2023/07/22 06:59:18;;;;;;;18.63;8.82;;;;;;;15.87;100.00;101149.06;5006258;28;20131;-81
2023/07/22 07:01:44;;;;;;;19.52;9.18;;;;;;;15.90;100.00;101142.63;5011608;28;20038;-81
2023/07/22 07:04:09;;;;;;;13.55;7.38;;;;;;;15.96;100.00;101143.00;5002434;28;20437;-81
2023/07/22 07:06:34;;;;;;;15.95;7.97;;;;;;;16.02;100.00;101138.53;5001405;28;20060;-81
2023/07/22 07:09:03;;;;;;;22.75;10.30;;;;;;;16.10;100.00;101139.31;5001235;28;20033;-81
2023/07/22 07:11:29;;;;;;;21.27;9.13;;;;;;;16.21;100.00;101143.72;5000041;28;20034;-81
2023/07/22 07:13:54;;;;;;;20.55;9.20;;;;;;;16.29;100.00;101141.66;5017616;28;20026;-81
2023/07/22 07:16:25;;;;;;;26.00;7.53;;;;;;;16.40;100.00;101142.41;5017041;28;20030;-81
2023/07/22 07:18:52;;;;;;;16.73;7.93;;;;;;;16.39;100.00;101142.81;4999635;28;20145;-81
2023/07/22 07:21:18;;;;;;;18.05;7.95;;;;;;;16.37;100.00;101142.44;4999861;28;20121;-81
2023/07/22 07:23:44;;;;;;;15.98;7.63;;;;;;;16.40;100.00;101141.59;4998443;28;20061;-81
2023/07/22 07:26:09;;;;;;;15.27;7.28;;;;;;;16.42;100.00;101145.63;4999840;28;20041;-81
2023/07/22 07:28:35;;;;;;;21.98;8.55;;;;;;;16.43;100.00;101135.94;4994370;28;20088;-81
2023/07/22 07:31:00;;;;;;;14.57;7.50;;;;;;;16.48;100.00;101142.38;5003092;28;20038;-81
2023/07/22 07:33:26;;;;;;;15.35;7.30;;;;;;;16.63;100.00;101138.22;5000063;28;20100;-81
2023/07/22 07:35:51;;;;;;;14.18;6.90;;;;;;;16.59;100.00;101138.28;5002837;28;20041;-81
2023/07/22 07:38:17;;;;;;;13.45;7.20;;;;;;;16.63;100.00;101138.22;5001743;28;20033;-81
2023/07/22 07:40:42;;;;;;;15.90;7.78;;;;;;;16.70;100.00;101137.38;5000261;28;20033;-81
2023/07/22 07:43:08;;;;;;;15.50;8.13;;;;;;;16.74;100.00;101147.47;4996026;28;20034;-81
2023/07/22 07:45:33;;;;;;;17.77;7.25;;;;;;;16.78;100.00;101145.41;5000964;28;20122;-81
2023/07/22 07:47:59;;;;;;;16.77;7.78;;;;;;;16.90;100.00;101146.16;4998982;28;20037;-82
2023/07/22 07:50:24;;;;;;;13.00;7.53;;;;;;;16.95;100.00;101137.22;4999196;28;20022;-82
2023/07/22 07:52:49;;;;;;;16.00;7.80;;;;;;;17.15;100.00;101141.09;5003369;28;20038;-82
2023/07/22 07:55:15;;;;;;;12.20;6.47;;;;;;;17.27;100.00;101148.28;4991406;28;20065;-82
2023/07/22 07:57:40;;;;;;;17.88;6.47;;;;;;;17.51;100.00;101139.97;5014591;28;20117;-82
2023/07/22 08:00:08;;;;;;;10.43;4.97;;;;;;;17.47;99.84;101134.34;4995196;28;20037;-82
2023/07/22 08:02:34;;;;;;;8.60;5.43;;;;;;;17.65;100.00;101137.00;5023068;28;20447;-82
2023/07/22 08:05:00;;;;;;;12.50;6.85;;;;;;;17.67;100.00;101134.56;4999836;28;20739;-82
2023/07/22 08:07:25;;;;;;;11.95;6.18;;;;;;;17.78;100.00;101138.06;5004626;28;20021;-82
2023/07/22 08:09:52;;;;;;;9.88;5.70;;;;;;;17.77;100.00;101136.47;4992882;28;20042;-82
2023/07/22 08:12:18;;;;;;;9.65;5.75;;;;;;;17.76;98.87;101139.72;5003551;28;20378;-82
2023/07/22 08:14:44;;;;;;;10.50;5.10;;;;;;;17.84;98.16;101135.63;5014303;28;20030;-78
2023/07/22 08:17:11;;;;;;;9.50;4.55;;;;;;;18.04;97.33;101128.06;4994381;28;20036;-81
2023/07/22 08:19:36;;;;;;;12.27;5.03;;;;;;;18.03;95.29;101132.16;4996002;28;20361;-81
2023/07/22 08:22:01;;;;;;;8.95;4.03;;;;;;;17.97;94.88;101133.84;4997932;28;20033;-81
2023/07/22 08:24:27;;;;;;;9.57;5.28;;;;;;;18.00;96.33;101138.63;4997081;28;20168;-82
2023/07/22 08:26:52;;;;;;;7.82;5.07;;;;;;;17.76;98.07;101134.06;4992871;28;20113;-81
2023/07/22 08:29:17;;;;;;;10.88;4.38;;;;;;;17.78;97.27;101140.09;4994676;28;20113;-81
2023/07/22 08:31:43;;;;;;;7.57;4.25;;;;;;;17.64;98.11;101130.53;4990063;28;20996;-81
2023/07/22 08:34:09;;;;;;;9.98;3.65;;;;;;;18.05;97.66;101135.34;5000566;28;20033;-81
2023/07/22 08:36:34;;;;;;;11.93;5.03;;;;;;;17.92;95.31;101125.81;5003303;28;20025;-81
2023/07/22 08:38:59;;;;;;;9.18;5.07;;;;;;;17.79;96.14;101131.19;4989018;28;20509;-81
2023/07/22 08:41:25;;;;;;;5.65;4.28;;;;;;;17.67;99.94;101137.38;4991015;28;20029;-81
2023/07/22 08:43:51;;;;;;;11.98;5.82;;;;;;;17.61;99.69;101127.75;4998939;28;20033;-81
2023/07/22 08:46:22;;;;;;;8.95;4.30;;;;;;;18.04;99.25;101125.25;4992453;28;20053;-82
2023/07/22 08:48:52;;;;;;;7.22;3.42;;;;;;;18.21;100.00;101129.06;4993899;28;20048;-81
2023/07/22 08:51:18;;;;;;;15.88;5.18;;;;;;;18.12;98.51;101128.00;4997575;28;20034;-82
2023/07/22 08:53:44;;;;;;;10.55;5.40;;;;;;;18.16;99.80;101132.38;4992207;28;20057;-82
2023/07/22 08:56:10;;;;;;;10.82;4.97;;;;;;;18.63;95.09;101128.91;4993163;28;20029;-82
2023/07/22 08:58:36;;;;;;;9.23;6.00;;;;;;;18.45;96.07;101124.31;5012752;28;20034;-82
2023/07/22 09:01:02;;;;;;;10.48;5.50;;;;;;;18.47;97.85;101126.72;4991855;28;20030;-82
2023/07/22 09:03:28;;;;;;;13.68;6.13;;;;;;;18.73;99.04;101132.81;5001014;28;20558;-81
2023/07/22 09:05:55;;;;;;;14.48;7.93;;;;;;;18.55;96.64;101127.41;4994104;28;20042;-80
2023/07/22 09:08:21;;;;;;;14.70;7.38;;;;;;;18.44;97.98;101122.69;4997951;28;20465;-80
2023/07/22 09:10:48;;;;;;;15.82;7.20;;;;;;;18.42;97.41;101125.13;4995872;28;20034;-80
2023/07/22 09:13:14;;;;;;;15.20;7.40;;;;;;;18.32;96.19;101102.63;5006975;28;20037;-80
2023/07/22 09:15:40;;;;;;;11.82;7.55;;;;;;;18.35;96.69;101108.25;5013182;28;20482;-80
2023/07/22 09:18:05;;;;;;;12.63;7.88;;;;;;;18.49;98.37;101119.38;4995870;28;20026;-80
2023/07/22 09:20:31;;;;;;;13.95;6.78;;;;;;;18.49;97.02;101105.22;4998778;28;20360;-80
2023/07/22 09:22:58;;;;;;;12.77;6.78;;;;;;;18.51;96.37;101109.63;5002563;28;20405;-80
2023/07/22 09:25:25;;;;;;;11.52;6.20;;;;;;;18.58;95.88;101103.88;4990075;28;20037;-80
2023/07/22 09:27:53;;;;;;;12.73;6.55;;;;;;;18.70;97.45;101111.81;4992690;28;20402;-80
2023/07/22 09:30:22;;;;;;;14.82;5.97;;;;;;;18.50;93.74;101108.84;4994808;28;20030;-80
2023/07/22 09:32:48;;;;;;;12.30;6.00;;;;;;;18.46;93.93;101108.09;4998145;28;20034;-80
2023/07/22 09:35:13;;;;;;;12.80;5.43;;;;;;;18.35;92.55;101102.59;4991595;28;20397;-80
2023/07/22 09:37:39;;;;;;;9.18;5.68;;;;;;;18.29;93.92;101098.63;4993720;28;20069;-80
2023/07/22 09:40:26;;;;;;;11.82;6.07;;;;;;;18.30;94.65;101097.41;4992027;28;20060;-80
2023/07/22 09:42:53;;;;;;;9.02;5.32;;;;;;;18.29;94.03;101092.94;5011872;28;20037;-80
2023/07/22 09:45:21;;;;;;;9.48;5.47;;;;;;;18.41;94.29;101092.38;4997804;28;20036;-80
2023/07/22 09:47:48;;;;;;;10.95;4.97;;;;;;;18.58;91.71;101098.22;4998789;28;20494;-80
2023/07/22 09:50:15;;;;;;;8.73;4.68;;;;;;;18.67;90.84;101084.28;4991208;28;20037;-80
2023/07/22 09:52:47;;;;;;;7.25;4.40;;;;;;;18.78;86.50;101082.09;5013309;28;20136;-80
2023/07/22 09:55:15;;;;;;;6.93;5.30;;;;;;;18.97;90.05;101086.25;4998216;28;20026;-79
2023/07/22 09:57:58;;;;;;;10.68;5.50;;;;;;;18.88;86.70;101089.63;5001239;28;20215;-80
2023/07/22 10:00:25;;;;;;;;;;;;;;;18.93;88.97;101084.72;4983586;28;20423;-80
2023/07/22 10:02:52;;;;;;;11.20;4.85;;;;;;;18.92;85.57;101077.44;5006864;28;19971;-80
2023/07/22 10:05:19;;;;;;;8.82;4.95;;;;;;;18.85;86.63;101079.16;4995670;28;20121;-80
2023/07/22 10:07:51;;;;;;;5.90;3.70;;;;;;;18.76;88.41;101081.69;5000900;28;20056;-80
2023/07/22 10:10:19;;;;;;;8.75;3.95;;;;;;;18.63;85.29;101084.34;5014289;28;20036;-80
2023/07/22 10:12:46;;;;;;;9.48;4.25;;;;;;;18.57;87.54;101079.59;5000456;28;20125;-80
2023/07/22 10:15:13;;;;;;;6.63;3.97;;;;;;;18.44;87.33;101076.53;5005937;28;20930;-80
2023/07/22 10:17:43;;;;;;;10.63;4.78;;;;;;;18.33;87.77;101085.19;4991689;28;20573;-80
2023/07/22 10:20:15;;;;;;;7.68;4.78;;;;;;;18.21;89.97;101102.78;4997800;28;20149;-80
2023/07/22 10:22:45;;;;;;;8.98;4.60;;;;;;;17.97;94.83;101116.84;5009480;28;21234;-80
2023/07/22 10:25:18;;;;;;;14.63;5.20;;;;;;;17.61;99.12;101122.88;4999182;28;20494;-80
2023/07/22 10:27:44;;;;;;;7.22;4.78;;;;;;;17.59;100.00;101114.00;5001142;28;21873;-81
2023/07/22 10:30:14;;;;;;;10.38;6.18;;;;;;;17.40;100.00;101103.31;4995372;28;20117;-82
2023/07/22 10:32:42;;;;;;;9.75;4.72;;;;;;;17.53;100.00;101115.69;5008643;28;20517;-81
2023/07/22 10:35:10;;;;;;;8.30;5.05;;;;;;;17.55;100.00;101106.78;4997617;28;20027;-81
2023/07/22 10:37:37;;;;;;;9.00;5.55;;;;;;;17.45;100.00;101102.84;4999795;28;20049;-81
2023/07/22 10:40:24;;;;;;;14.32;5.85;;;;;;;17.33;100.00;101112.69;4996058;28;20394;-81
2023/07/22 10:42:56;;;;;;;10.15;5.40;;;;;;;17.37;100.00;101116.28;4992960;28;20493;-81
2023/07/22 10:45:27;;;;;;;8.82;5.60;;;;;;;17.55;100.00;101118.09;4999508;28;20026;-80
2023/07/22 10:48:12;;;;;;;9.85;5.18;;;;;;;17.53;100.00;101129.84;5000310;28;20097;-80
2023/07/22 10:51:01;;;;;;;12.02;5.93;;;;;;;17.52;100.00;101135.91;4996913;28;20497;-81
2023/07/22 10:53:27;;;;;;;12.00;7.22;;;;;;;17.30;100.00;101124.00;4995899;28;20053;-82
2023/07/22 10:56:14;;;;;;;12.13;7.65;;;;;;;17.32;100.00;101130.84;5011310;28;20034;-81
2023/07/22 10:58:48;;;;;;;15.25;9.77;;;;;;;17.10;100.00;101137.91;5011278;28;20730;-81
2023/07/22 11:01:28;;;;;;;14.07;9.77;;;;;;;17.20;100.00;101135.03;5000233;28;20055;-81
2023/07/22 11:04:32;;;;;;;11.57;8.93;;;;;;;17.36;100.00;101139.31;5018736;28;20496;-81
2023/07/22 11:07:00;;;;;;;14.93;10.70;;;;;;;17.22;100.00;101134.59;4991884;28;20042;-82
2023/07/22 11:09:29;;;;;;;15.48;9.52;;;;;;;17.08;100.00;101141.19;5002366;28;20030;-82
2023/07/22 11:11:59;;;;;;;15.68;10.02;;;;;;;16.91;100.00;101131.63;5000744;28;20033;-83